Time;durP1;ratioP1;P1;durP2;ratioP2;P2;SDS_P1;SDS_P2;PMS_P1;PMS_P2;Temp;Humidity;BMP_temperature;BMP_pressure;BME280_temperature;BME280_humidity;BME280_pressure;Samples;Min_cycle;Max_cycle;Signal;HPM_P1;HPM_P2
2024/03/21 00:00:11;;;;;;;9.95;5.00;;;;;;;5.31;54.04;94340.56;5004837;28;20022;-78
2024/03/21 00:02:41;;;;;;;13.43;6.07;;;;;;;5.33;54.02;94338.47;5004320;28;20033;-78
2024/03/21 00:05:09;;;;;;;16.45;6.20;;;;;;;5.33;53.93;94337.66;5003063;28;20364;-78
2024/03/21 00:07:34;;;;;;;14.02;6.68;;;;;;;5.30;54.17;94333.69;5004794;28;20096;-78
2024/03/21 00:10:00;;;;;;;12.77;6.30;;;;;;;5.34;54.10;94326.03;5004249;28;20317;-77
2024/03/21 00:12:26;;;;;;;13.23;6.03;;;;;;;5.28;54.07;94330.53;5004118;28;20060;-78
2024/03/21 00:14:51;;;;;;;12.45;5.95;;;;;;;5.26;54.35;94326.56;5004143;28;20033;-78
2024/03/21 00:17:17;;;;;;;11.75;5.50;;;;;;;5.26;54.30;94326.56;5004306;28;20090;-78
2024/03/21 00:19:42;;;;;;;10.20;6.07;;;;;;;5.24;54.42;94321.56;5004253;28;20022;-78
2024/03/21 00:22:07;;;;;;;13.52;5.72;;;;;;;5.20;54.48;94317.84;5004010;28;20034;-78
2024/03/21 00:24:37;;;;;;;15.73;6.57;;;;;;;5.17;54.53;94316.56;5004283;28;20053;-79
2024/03/21 00:27:03;;;;;;;11.48;5.90;;;;;;;5.14;54.74;94317.06;5004046;28;20025;-78
2024/03/21 00:29:28;;;;;;;9.00;5.90;;;;;;;5.11;54.84;94320.25;5004156;28;20022;-79
2024/03/21 00:31:54;;;;;;;15.20;5.55;;;;;;;5.08;54.89;94320.00;5002758;28;20014;-79
2024/03/21 00:34:20;;;;;;;11.85;5.13;;;;;;;5.03;55.20;94318.94;5003708;28;20225;-77
2024/03/21 00:36:45;;;;;;;9.60;5.55;;;;;;;5.03;55.28;94307.59;5003928;28;20022;-78
2024/03/21 00:39:15;;;;;;;11.43;5.63;;;;;;;5.02;55.55;94306.78;5003941;28;20021;-78
2024/03/21 00:41:41;;;;;;;9.38;5.05;;;;;;;5.06;55.41;94306.25;5003389;28;20018;-78
2024/03/21 00:44:07;;;;;;;13.20;5.45;;;;;;;5.10;55.28;94307.31;5003720;28;20046;-78
2024/03/21 00:46:33;;;;;;;11.10;6.18;;;;;;;5.08;55.34;94304.16;5003940;28;20010;-78
2024/03/21 00:48:58;;;;;;;13.10;6.00;;;;;;;5.09;55.87;94305.72;5003550;28;20029;-78
2024/03/21 00:51:24;;;;;;;11.82;5.82;;;;;;;5.06;56.01;94293.06;5003400;28;20073;-77
2024/03/21 00:53:49;;;;;;;10.20;5.13;;;;;;;4.90;55.89;94300.97;5003356;28;20038;-78
2024/03/21 00:56:14;;;;;;;9.75;5.18;;;;;;;4.88;56.07;94294.38;5003790;28;20026;-78
2024/03/21 00:58:40;;;;;;;11.18;5.32;;;;;;;4.85;55.80;94293.09;5003647;28;20285;-78
2024/03/21 01:01:05;;;;;;;15.00;5.65;;;;;;;4.78;55.76;94297.84;5003578;28;20309;-77
2024/03/21 01:03:31;;;;;;;12.85;5.63;;;;;;;4.77;55.83;94306.81;5003856;28;20022;-77
2024/03/21 01:05:56;;;;;;;10.80;5.70;;;;;;;4.77;55.74;94288.34;5003464;28;20026;-77
2024/03/21 01:08:23;;;;;;;13.32;5.28;;;;;;;4.79;55.85;94292.28;5003516;28;20256;-77
2024/03/21 01:10:49;;;;;;;10.35;5.72;;;;;;;4.80;55.80;94293.06;5003905;28;20022;-77
2024/03/21 01:13:15;;;;;;;7.82;4.95;;;;;;;4.67;56.77;94280.44;5003360;28;20042;-76
2024/03/21 01:15:41;;;;;;;14.20;5.82;;;;;;;4.70;57.00;94282.53;5003544;28;20023;-76
2024/03/21 01:18:07;;;;;;;16.52;6.55;;;;;;;4.58;57.18;94280.97;5003340;28;20050;-76
2024/03/21 01:20:33;;;;;;;12.40;5.90;;;;;;;4.68;57.16;94288.09;5003317;28;20030;-76
2024/03/21 01:22:59;;;;;;;11.95;6.45;;;;;;;4.74;57.28;94283.56;5003257;28;20086;-77
2024/03/21 01:25:26;;;;;;;11.85;5.88;;;;;;;4.77;57.69;94288.34;5003600;28;20264;-76
2024/03/21 01:27:51;;;;;;;17.77;7.30;;;;;;;4.81;57.69;94292.81;5003620;28;20029;-76
2024/03/21 01:30:17;;;;;;;16.05;7.63;;;;;;;4.83;58.09;94288.06;5003407;28;20050;-77
2024/03/21 01:32:42;;;;;;;18.00;7.43;;;;;;;4.88;58.13;94286.47;5003596;28;20368;-77
2024/03/21 01:35:08;;;;;;;14.18;6.40;;;;;;;4.86;57.62;94292.00;5003620;28;20025;-77
2024/03/21 01:37:33;;;;;;;14.35;6.45;;;;;;;4.80;57.89;94293.06;5003811;28;20023;-78
2024/03/21 01:40:06;;;;;;;15.10;6.57;;;;;;;4.83;57.76;94287.28;5002541;28;20022;-78
2024/03/21 01:42:31;;;;;;;17.45;6.43;;;;;;;4.79;58.09;94283.59;5003800;28;20249;-78
2024/03/21 01:45:03;;;;;;;12.07;6.97;;;;;;;4.70;58.23;94296.53;5003262;28;20081;-77
2024/03/21 01:47:28;;;;;;;11.77;6.85;;;;;;;4.72;58.28;94297.06;5003656;28;20070;-77
2024/03/21 01:49:54;;;;;;;12.88;6.78;;;;;;;4.69;58.71;94296.78;5003811;28;20275;-78
2024/03/21 01:52:22;;;;;;;12.32;6.63;;;;;;;4.64;58.47;94284.41;5003883;28;20026;-78
2024/03/21 01:54:48;;;;;;;13.60;7.00;;;;;;;4.61;59.21;94288.34;5003465;28;20042;-78
2024/03/21 01:57:13;;;;;;;12.73;6.50;;;;;;;4.52;59.16;94282.00;5002290;28;20045;-78
2024/03/21 01:59:39;;;;;;;16.75;6.55;;;;;;;4.42;59.36;94274.88;5018656;28;20137;-79
2024/03/21 02:02:05;;;;;;;16.83;7.47;;;;;;;4.35;59.50;94286.75;5019367;28;20026;-79
2024/03/21 02:04:31;;;;;;;12.77;7.45;;;;;;;4.37;59.40;94279.38;5007052;28;20287;-79
2024/03/21 02:06:57;;;;;;;11.98;6.88;;;;;;;4.37;59.58;94279.38;5005859;28;20037;-79
2024/03/21 02:09:25;;;;;;;14.27;7.13;;;;;;;4.35;59.89;94270.91;5007033;28;20018;-79
2024/03/21 02:11:51;;;;;;;13.27;6.65;;;;;;;4.31;59.69;94275.13;5006978;28;20026;-79
2024/03/21 02:14:19;;;;;;;14.93;5.78;;;;;;;4.15;58.43;94261.13;5005650;28;20309;-78
2024/03/21 02:16:45;;;;;;;14.57;6.30;;;;;;;4.19;58.52;94272.75;5006647;28;20317;-79
2024/03/21 02:19:10;;;;;;;13.50;6.13;;;;;;;4.26;58.97;94267.22;5006697;28;20040;-79
2024/03/21 02:24:20;;;;;;;14.02;6.57;;;;;;;4.24;58.75;94270.13;5006382;28;20072;-77
2024/03/21 02:26:45;;;;;;;13.77;6.35;;;;;;;4.27;58.74;94274.06;5006516;28;20097;-77
2024/03/21 02:29:10;;;;;;;15.25;6.97;;;;;;;4.29;58.74;94266.69;5005970;28;20048;-77
2024/03/21 02:31:36;;;;;;;15.38;6.93;;;;;;;4.30;58.69;94277.00;5006093;28;20068;-77
2024/03/21 02:34:01;;;;;;;14.82;7.40;;;;;;;4.27;59.08;94269.59;5006097;28;20145;-77
2024/03/21 02:36:27;;;;;;;18.35;6.68;;;;;;;4.32;58.99;94258.25;5006152;28;20332;-77
2024/03/21 02:38:52;;;;;;;12.45;6.32;;;;;;;4.37;58.64;94274.88;5006128;28;20046;-77
2024/03/21 02:41:17;;;;;;;15.27;7.28;;;;;;;4.29;59.00;94272.75;5005886;28;20324;-78
2024/03/21 02:43:43;;;;;;;12.70;6.05;;;;;;;4.13;58.82;94256.13;5005770;28;20037;-78
2024/03/21 02:46:08;;;;;;;15.63;6.72;;;;;;;4.15;59.59;94264.59;5005904;28;20045;-77
2024/03/21 02:48:34;;;;;;;14.48;6.63;;;;;;;4.15;58.51;94255.84;5005852;28;20094;-77
2024/03/21 02:50:59;;;;;;;13.55;5.65;;;;;;;4.17;58.30;94259.03;5004365;28;20022;-77
2024/03/21 02:53:25;;;;;;;16.27;6.03;;;;;;;4.18;57.52;94256.13;5005403;28;20096;-77
2024/03/21 02:55:50;;;;;;;12.13;6.03;;;;;;;4.20;57.09;94258.50;5005864;28;20026;-77
2024/03/21 02:58:15;;;;;;;14.80;6.30;;;;;;;4.23;57.23;94268.53;5006067;28;20026;-77
2024/03/21 03:00:41;;;;;;;13.20;6.13;;;;;;;4.29;57.60;94258.78;5005847;28;20097;-77
2024/03/21 03:03:07;;;;;;;15.35;6.55;;;;;;;4.27;57.79;94258.25;5005608;28;20069;-78
2024/03/21 03:05:39;;;;;;;13.52;6.40;;;;;;;4.29;57.87;94264.06;5006028;28;20026;-78
2024/03/21 03:08:04;;;;;;;;;;;;;;;4.31;57.30;94261.94;5006295;28;20034;-77
2024/03/21 03:10:30;;;;;;;12.13;6.65;;;;;;;4.17;58.38;94254.56;5005630;28;19905;-77
2024/03/21 03:12:55;;;;;;;17.80;6.78;;;;;;;4.10;58.33;94258.50;5005245;28;20022;-77
2024/03/21 03:15:20;;;;;;;19.17;7.07;;;;;;;4.16;57.77;94257.44;5004615;28;20022;-77
2024/03/21 03:17:46;;;;;;;15.15;7.10;;;;;;;4.13;58.33;94256.13;5005275;28;20026;-77
2024/03/21 03:20:11;;;;;;;13.90;6.78;;;;;;;4.17;58.74;94256.38;5005453;28;20030;-78
2024/03/21 03:22:37;;;;;;;16.13;7.38;;;;;;;4.14;58.93;94256.94;5005239;28;20030;-77
2024/03/21 03:25:05;;;;;;;11.55;6.82;;;;;;;4.20;59.07;94267.22;5005480;28;20029;-77
2024/03/21 03:27:31;;;;;;;11.60;6.35;;;;;;;4.24;59.19;94266.69;5005130;28;20177;-77
2024/03/21 03:29:56;;;;;;;17.98;7.68;;;;;;;4.25;59.71;94258.50;5004937;28;20037;-77
2024/03/21 03:32:22;;;;;;;16.40;8.38;;;;;;;4.22;59.83;94265.09;5004689;28;20057;-77
2024/03/21 03:37:32;;;;;;;16.10;8.07;;;;;;;4.16;59.91;94268.78;5004894;28;20355;-76
2024/03/21 03:39:57;;;;;;;15.35;8.15;;;;;;;4.13;60.10;94260.59;5004786;28;20030;-77
2024/03/21 03:42:23;;;;;;;16.15;7.07;;;;;;;4.10;60.15;94269.84;5004330;28;20291;-76
2024/03/21 03:44:48;;;;;;;13.57;7.38;;;;;;;4.11;60.30;94271.44;5004332;28;20022;-78
2024/03/21 03:47:14;;;;;;;20.20;7.13;;;;;;;4.06;60.61;94266.13;5004923;28;20025;-78
2024/03/21 03:49:40;;;;;;;13.30;7.45;;;;;;;4.07;60.57;94274.84;5004700;28;20022;-78
2024/03/21 03:52:05;;;;;;;13.70;6.60;;;;;;;4.05;60.75;94272.50;5020180;28;20340;-77
2024/03/21 03:54:31;;;;;;;21.77;8.02;;;;;;;4.01;61.10;94277.50;5004567;28;20054;-79
2024/03/21 03:56:56;;;;;;;23.08;8.75;;;;;;;3.99;60.76;94276.16;5003427;28;20026;-79
2024/03/21 03:59:22;;;;;;;17.95;7.90;;;;;;;3.96;60.98;94281.94;5004373;28;20305;-79
2024/03/21 04:01:47;;;;;;;37.33;8.23;;;;;;;3.98;61.20;94277.22;5004431;28;20046;-79
2024/03/21 04:04:13;;;;;;;27.10;9.55;;;;;;;3.92;61.14;94292.22;5004509;28;20026;-80
2024/03/21 04:06:40;;;;;;;18.77;8.63;;;;;;;3.87;61.29;94281.69;5004354;28;20026;-80
2024/03/21 04:09:07;;;;;;;16.98;8.70;;;;;;;3.85;61.48;94283.78;5004757;28;20054;-79
2024/03/21 04:11:32;;;;;;;20.73;8.35;;;;;;;3.81;61.63;94291.41;5004479;28;20057;-79
2024/03/21 04:13:58;;;;;;;17.80;8.48;;;;;;;3.77;61.84;94292.19;5004388;28;20034;-79
2024/03/21 04:16:24;;;;;;;20.02;8.70;;;;;;;3.73;61.79;94291.91;5004572;28;20026;-79
2024/03/21 04:18:49;;;;;;;19.15;7.38;;;;;;;3.71;61.92;94288.75;5004684;28;20093;-79
2024/03/21 04:21:15;;;;;;;16.45;8.57;;;;;;;3.70;62.18;94292.41;5004652;28;20060;-79
2024/03/21 04:23:40;;;;;;;24.30;8.93;;;;;;;3.69;62.34;94301.41;5004500;28;20030;-79
2024/03/21 04:26:06;;;;;;;19.63;7.30;;;;;;;3.70;62.28;94289.78;5004034;28;20026;-79
2024/03/21 04:28:32;;;;;;;19.70;8.23;;;;;;;3.59;62.61;94291.59;5004261;28;20022;-79
2024/03/21 04:30:57;;;;;;;20.00;8.70;;;;;;;3.57;62.60;94298.19;5019152;28;20097;-79
2024/03/21 04:33:22;;;;;;;13.93;7.60;;;;;;;3.56;63.18;94296.59;5004437;28;20053;-79
2024/03/21 04:35:49;;;;;;;28.35;8.25;;;;;;;3.54;63.19;94293.41;5004050;28;20022;-79
2024/03/21 04:38:14;;;;;;;20.05;8.38;;;;;;;3.56;63.32;94291.31;5004210;28;20025;-79
2024/03/21 04:40:40;;;;;;;17.35;8.63;;;;;;;3.50;63.25;94289.72;5003012;28;20109;-79
2024/03/21 04:43:05;;;;;;;19.10;8.63;;;;;;;3.46;63.30;94286.00;5003821;28;20027;-79
2024/03/21 04:45:31;;;;;;;17.67;8.35;;;;;;;3.46;63.46;94291.28;5003893;28;20025;-79
2024/03/21 04:47:56;;;;;;;19.48;9.02;;;;;;;3.45;63.50;94289.72;5003626;28;20220;-79
2024/03/21 04:50:23;;;;;;;19.40;9.13;;;;;;;3.46;63.65;94297.38;5004139;28;20038;-81
2024/03/21 04:52:48;;;;;;;18.45;9.55;;;;;;;3.48;64.00;94291.81;5003861;28;20049;-79
2024/03/21 04:55:14;;;;;;;20.15;9.57;;;;;;;3.47;63.91;94292.88;5003906;28;20026;-79
2024/03/21 04:57:40;;;;;;;24.75;9.82;;;;;;;3.47;63.86;94288.41;5004117;28;20030;-79
2024/03/21 05:00:10;;;;;;;23.33;10.05;;;;;;;3.46;63.65;94286.00;5004231;28;20045;-79
2024/03/21 05:02:40;;;;;;;19.65;10.13;;;;;;;3.42;63.58;94283.13;5004207;28;20047;-79
2024/03/21 05:05:06;;;;;;;19.10;9.75;;;;;;;3.48;63.85;94283.91;5003890;28;20066;-80
2024/03/21 05:07:32;;;;;;;30.95;10.18;;;;;;;3.47;63.35;94290.25;5002663;28;20028;-80
2024/03/21 05:09:57;;;;;;;22.80;9.55;;;;;;;3.56;63.06;94288.69;5003781;28;20026;-78
2024/03/21 05:12:23;;;;;;;21.02;10.02;;;;;;;3.47;63.18;94287.59;5004027;28;20201;-77
2024/03/21 05:14:49;;;;;;;25.35;9.30;;;;;;;3.59;63.10;94293.44;5003549;28;20029;-77
2024/03/21 05:17:16;;;;;;;26.15;10.25;;;;;;;3.63;63.42;94302.44;5003175;28;20097;-79
2024/03/21 05:19:42;;;;;;;30.75;11.18;;;;;;;3.69;63.77;94288.22;5003362;28;20020;-77
2024/03/21 05:22:08;;;;;;;32.17;10.75;;;;;;;3.82;63.85;94284.28;5002522;28;20053;-77
2024/03/21 05:24:33;;;;;;;26.60;10.60;;;;;;;3.85;63.60;94289.06;5003225;28;20386;-78
2024/03/21 05:27:02;;;;;;;39.75;13.23;;;;;;;3.97;63.17;94281.69;5003244;28;20022;-77
2024/03/21 05:29:27;;;;;;;32.35;11.43;;;;;;;4.04;63.09;94286.72;5003441;28;20034;-77
2024/03/21 05:31:52;;;;;;;27.75;10.75;;;;;;;4.16;62.56;94291.75;5003302;28;20186;-77
2024/03/21 05:34:18;;;;;;;20.88;9.68;;;;;;;4.26;62.20;94291.75;5003257;28;20026;-77
2024/03/21 05:36:43;;;;;;;28.42;10.25;;;;;;;4.34;62.01;94285.97;5003233;28;20026;-77
2024/03/21 05:39:09;;;;;;;21.95;10.10;;;;;;;4.41;61.44;94280.41;5007276;28;20297;-77
2024/03/21 05:41:34;;;;;;;30.90;9.93;;;;;;;4.54;60.72;94285.19;5006953;28;20073;-76
2024/03/21 05:43:59;;;;;;;26.13;11.23;;;;;;;4.62;60.74;94287.28;5006731;28;20356;-77
2024/03/21 05:46:27;;;;;;;24.70;9.88;;;;;;;4.70;60.45;94275.41;5006981;28;20093;-78
2024/03/21 05:48:54;;;;;;;28.35;10.00;;;;;;;4.77;60.18;94277.78;5007005;28;20026;-77
2024/03/21 05:51:20;;;;;;;15.85;8.32;;;;;;;4.79;60.30;94280.94;5006946;28;20385;-78
2024/03/21 05:53:46;;;;;;;21.02;9.70;;;;;;;4.87;60.19;94277.75;5007034;28;20038;-79
2024/03/21 05:56:15;;;;;;;32.70;10.63;;;;;;;4.98;59.60;94276.66;5007133;28;20053;-83
2024/03/21 05:58:40;;;;;;;29.55;11.30;;;;;;;5.02;59.53;94271.66;5007069;28;20030;-80
2024/03/21 06:03:32;;;;;;;27.98;10.10;;;;;;;5.12;59.47;94270.84;5006693;28;20038;-80
2024/03/21 06:05:57;;;;;;;32.08;10.88;;;;;;;4.97;59.67;94279.59;5006834;28;20029;-80
2024/03/21 06:08:23;;;;;;;35.80;11.10;;;;;;;5.01;59.79;94278.78;5022184;28;20022;-80
2024/03/21 06:10:48;;;;;;;44.50;10.73;;;;;;;4.99;59.54;94266.91;5006824;28;20200;-81
2024/03/21 06:13:14;;;;;;;22.08;9.65;;;;;;;5.11;59.53;94277.16;5006892;28;20022;-80
2024/03/21 06:15:40;;;;;;;26.50;11.65;;;;;;;5.25;59.10;94288.78;5006689;28;20022;-78
2024/03/21 06:18:06;;;;;;;30.70;10.80;;;;;;;5.27;58.73;94286.66;5006506;28;20264;-77
2024/03/21 06:20:31;;;;;;;38.83;11.95;;;;;;;5.23;59.50;94272.38;5006230;28;20037;-80
2024/03/21 06:22:57;;;;;;;27.15;10.25;;;;;;;5.41;58.32;94279.75;5006023;28;20118;-79
2024/03/21 06:25:22;;;;;;;25.90;10.10;;;;;;;5.45;57.60;94277.34;5005928;28;20032;-80
2024/03/21 06:27:49;;;;;;;37.13;11.82;;;;;;;5.54;57.48;94280.22;5006097;28;20022;-80
2024/03/21 06:30:15;;;;;;;33.08;12.25;;;;;;;5.55;57.60;94279.16;5005940;28;20025;-80
2024/03/21 06:32:41;;;;;;;32.25;10.88;;;;;;;5.69;57.46;94280.16;5006213;28;20371;-81
2024/03/21 06:35:07;;;;;;;28.83;11.27;;;;;;;5.83;56.77;94278.50;5006066;28;20022;-81
2024/03/21 06:37:33;;;;;;;21.23;10.73;;;;;;;5.91;55.97;94284.28;5005966;28;20029;-82
2024/03/21 06:39:59;;;;;;;29.02;10.70;;;;;;;5.98;56.00;94284.78;5006115;28;20014;-81
2024/03/21 06:42:25;;;;;;;35.30;11.18;;;;;;;5.97;56.11;94283.22;5005972;28;20029;-81
2024/03/21 06:44:50;;;;;;;44.50;11.23;;;;;;;5.91;56.54;94273.72;5006033;28;20034;-81
2024/03/21 06:47:16;;;;;;;43.03;11.60;;;;;;;6.00;56.40;94275.53;5006040;28;20228;-81
2024/03/21 06:49:41;;;;;;;24.52;10.90;;;;;;;5.94;56.29;94279.25;5005439;28;20026;-82
2024/03/21 06:52:07;;;;;;;27.92;11.07;;;;;;;5.86;56.39;94279.00;5005941;28;20050;-82
2024/03/21 06:54:32;;;;;;;24.85;11.73;;;;;;;5.86;56.16;94285.09;5021026;28;20046;-83
2024/03/21 06:56:58;;;;;;;34.58;13.88;;;;;;;5.90;56.38;94291.41;5005990;28;20027;-81
2024/03/21 06:59:25;;;;;;;23.05;10.43;;;;;;;5.99;56.63;94281.09;5006229;28;20034;-81
2024/03/21 07:01:51;;;;;;;35.58;13.10;;;;;;;6.14;56.45;94288.16;5020812;28;20026;-82
2024/03/21 07:04:16;;;;;;;32.97;12.15;;;;;;;6.24;55.87;94280.16;5006121;28;20022;-81
2024/03/21 07:06:41;;;;;;;31.55;11.90;;;;;;;6.25;55.54;94284.38;5005807;28;20045;-80
2024/03/21 07:09:07;;;;;;;28.45;11.65;;;;;;;6.34;55.13;94284.59;5005704;28;20023;-80
2024/03/21 07:11:33;;;;;;;36.50;12.48;;;;;;;6.49;54.65;94267.78;5005727;28;20298;-80
2024/03/21 07:13:59;;;;;;;52.20;12.52;;;;;;;6.63;54.13;94274.84;5005350;28;20233;-78
2024/03/21 07:16:25;;;;;;;26.30;11.82;;;;;;;6.77;53.76;94267.00;5005283;28;20264;-78
2024/03/21 07:18:50;;;;;;;28.63;10.32;;;;;;;6.90;53.39;94275.38;5005202;28;20082;-76
2024/03/21 07:21:16;;;;;;;38.92;10.75;;;;;;;7.09;53.66;94270.19;5004569;28;20037;-76
2024/03/21 07:23:41;;;;;;;33.83;12.40;;;;;;;7.23;53.28;94263.94;5004890;28;20030;-77
2024/03/21 07:26:07;;;;;;;34.97;10.02;;;;;;;7.41;52.46;94267.72;5004581;28;20026;-75
2024/03/21 07:28:32;;;;;;;28.65;11.15;;;;;;;7.57;51.65;94260.38;5005193;28;20210;-83
2024/03/21 07:30:58;;;;;;;21.13;9.25;;;;;;;7.71;49.37;94264.97;5005066;28;20053;-79
2024/03/21 07:33:24;;;;;;;22.58;9.60;;;;;;;7.78;49.26;94257.47;5004774;28;20024;-80
2024/03/21 07:35:57;;;;;;;22.80;9.88;;;;;;;7.93;48.52;94256.47;5004603;28;20045;-79
2024/03/21 07:38:23;;;;;;;17.02;8.30;;;;;;;8.01;47.04;94259.25;5004619;28;20022;-77
2024/03/21 07:40:55;;;;;;;23.15;8.93;;;;;;;8.06;47.19;94241.69;5007209;28;20034;-83
2024/03/21 07:43:20;;;;;;;19.05;7.90;;;;;;;8.17;45.94;94257.19;5006167;28;20026;-87
2024/03/21 07:45:46;;;;;;;12.73;6.20;;;;;;;8.17;45.45;94254.53;5006332;28;20030;-86
2024/03/21 07:48:11;;;;;;;16.88;5.05;;;;;;;8.23;42.86;94257.91;5007184;28;20221;-86
2024/03/21 07:50:36;;;;;;;12.73;5.20;;;;;;;8.20;43.13;94256.63;5013642;28;20026;-87
2024/03/21 07:53:03;;;;;;;11.82;4.80;;;;;;;8.19;42.62;94254.25;5027281;28;20034;-88
2024/03/21 07:55:29;;;;;;;10.35;4.93;;;;;;;8.22;42.92;94254.47;5011778;28;20225;-89
2024/03/21 07:57:55;;;;;;;8.57;4.32;;;;;;;8.23;42.32;94261.34;5012342;28;20046;-88
2024/03/21 08:00:20;;;;;;;10.55;5.32;;;;;;;8.31;42.63;94257.25;5007600;28;20151;-89
2024/03/21 08:02:46;;;;;;;13.13;4.40;;;;;;;8.35;42.72;94249.50;5006030;28;20022;-89
2024/03/21 08:05:11;;;;;;;12.90;4.35;;;;;;;8.36;42.20;94253.72;5005612;28;20022;-87
2024/03/21 08:07:36;;;;;;;16.88;5.15;;;;;;;8.37;42.90;94252.66;5004982;28;20029;-89
2024/03/21 08:10:03;;;;;;;9.73;3.53;;;;;;;8.30;41.59;94250.34;5020694;28;20028;-87
2024/03/21 08:12:28;;;;;;;15.15;5.03;;;;;;;8.31;41.11;94248.50;5005132;28;20022;-88
2024/03/21 08:14:54;;;;;;;10.27;3.70;;;;;;;8.30;41.73;94247.69;5005301;28;20073;-88
2024/03/21 08:17:20;;;;;;;8.35;3.40;;;;;;;8.33;41.30;94249.78;5005541;28;20045;-90
2024/03/21 08:19:45;;;;;;;9.05;3.17;;;;;;;8.37;41.24;94248.13;5005307;28;20332;-90
2024/03/21 08:22:11;;;;;;;10.00;4.25;;;;;;;8.47;41.27;94257.84;5005798;28;20030;-89
2024/03/21 08:24:38;;;;;;;18.35;6.00;;;;;;;8.51;40.69;94250.06;5005962;28;20018;-90
2024/03/21 08:27:05;;;;;;;7.85;3.83;;;;;;;8.51;40.98;94245.56;5004124;28;20086;-88
2024/03/21 08:29:31;;;;;;;7.43;3.45;;;;;;;8.57;40.14;94247.06;5005125;28;20022;-89
2024/03/21 08:31:58;;;;;;;6.43;3.15;;;;;;;8.66;39.23;94241.09;5003768;28;20068;-89
2024/03/21 08:34:24;;;;;;;11.52;3.95;;;;;;;8.71;38.96;94246.31;5003140;28;20042;-90
2024/03/21 08:36:50;;;;;;;13.65;3.55;;;;;;;8.77;39.97;94231.84;5004036;28;20335;-90
2024/03/21 08:39:16;;;;;;;10.32;3.97;;;;;;;8.90;39.47;94240.94;5019533;28;20025;-91
2024/03/21 08:41:41;;;;;;;8.60;3.22;;;;;;;8.95;39.21;94246.16;5004737;28;20018;-91
2024/03/21 08:44:06;;;;;;;6.63;3.85;;;;;;;8.90;38.68;94232.97;5004367;28;20055;-90
2024/03/21 08:46:32;;;;;;;8.27;3.22;;;;;;;8.86;40.09;94246.06;5004073;28;20034;-90
2024/03/21 08:48:57;;;;;;;8.02;3.92;;;;;;;8.87;39.94;94238.88;5003969;28;20185;-91
2024/03/21 08:51:23;;;;;;;12.13;3.28;;;;;;;8.89;39.17;94232.16;5020226;28;20028;-90
2024/03/21 08:53:48;;;;;;;9.75;3.05;;;;;;;8.87;37.84;94231.66;5003830;28;20049;-89
2024/03/21 08:56:14;;;;;;;9.20;2.50;;;;;;;8.86;37.32;94226.66;5005141;28;20026;-89
2024/03/21 08:58:39;;;;;;;16.67;3.90;;;;;;;8.87;38.40;94225.56;5004224;28;20019;-90
2024/03/21 09:01:05;;;;;;;9.02;3.38;;;;;;;8.92;39.01;94234.25;5004022;28;20030;-89
2024/03/21 09:03:33;;;;;;;14.88;3.97;;;;;;;8.97;39.24;94220.06;5004644;28;20018;-90
2024/03/21 09:05:58;;;;;;;7.95;3.08;;;;;;;9.10;38.54;94211.34;5005202;28;20089;-90
2024/03/21 09:08:24;;;;;;;14.77;3.00;;;;;;;9.17;37.41;94213.59;5020047;28;20069;-87
2024/03/21 09:11:00;;;;;;;4.70;2.97;;;;;;;9.32;37.71;94213.31;5020754;28;20117;-90
2024/03/21 09:13:25;;;;;;;4.13;2.28;;;;;;;9.44;36.60;94202.97;5009001;28;20044;-90
2024/03/21 09:15:51;;;;;;;7.97;3.45;;;;;;;9.54;37.21;94196.63;5009769;28;20022;-89
2024/03/21 09:18:16;;;;;;;12.25;3.30;;;;;;;9.65;37.27;94191.91;5008210;28;20026;-90
2024/03/21 09:20:46;;;;;;;6.85;2.47;;;;;;;9.81;36.96;94193.16;5023679;28;20033;-89
2024/03/21 09:23:11;;;;;;;5.32;2.75;;;;;;;9.87;37.76;94183.19;5008172;28;20057;-90
2024/03/21 09:25:37;;;;;;;7.50;3.25;;;;;;;10.04;37.56;94183.31;5024480;28;20026;-89
2024/03/21 09:28:02;;;;;;;12.75;4.03;;;;;;;10.24;37.54;94182.06;5010753;28;20033;-85
2024/03/21 09:30:28;;;;;;;5.63;2.78;;;;;;;10.40;36.73;94179.03;5007730;28;20068;-86
2024/03/21 09:32:53;;;;;;;6.38;2.92;;;;;;;10.56;37.34;94182.94;5007303;28;20022;-86
2024/03/21 09:35:18;;;;;;;9.02;2.10;;;;;;;10.68;35.94;94185.03;5006733;28;20022;-86
2024/03/21 09:37:44;;;;;;;11.18;4.45;;;;;;;10.76;35.73;94186.94;5022991;28;20097;-86
2024/03/21 09:40:10;;;;;;;5.22;2.35;;;;;;;10.71;34.56;94189.75;5007796;28;20030;-85
2024/03/21 09:42:36;;;;;;;7.07;2.50;;;;;;;10.76;34.68;94180.84;5006381;28;20075;-86
2024/03/21 09:45:03;;;;;;;4.35;2.17;;;;;;;10.71;34.79;94172.97;5006666;28;20049;-86
2024/03/21 09:47:30;;;;;;;10.60;2.85;;;;;;;10.79;35.44;94173.00;5007342;28;20030;-86
2024/03/21 09:49:57;;;;;;;7.85;2.28;;;;;;;10.85;35.33;94173.69;5007792;28;20080;-86
2024/03/21 09:52:22;;;;;;;7.40;2.17;;;;;;;10.92;34.46;94154.56;5022169;28;20022;-86
2024/03/21 09:54:48;;;;;;;3.70;1.80;;;;;;;11.03;33.45;94164.66;5006926;28;20049;-86
2024/03/21 09:57:14;;;;;;;6.55;1.80;;;;;;;11.04;33.14;94155.53;5006960;28;20102;-85
2024/03/21 09:59:41;;;;;;;5.53;1.65;;;;;;;11.14;33.87;94154.50;5006383;28;20194;-86
2024/03/21 10:02:13;;;;;;;5.78;1.42;;;;;;;11.09;31.91;94148.50;5021756;28;20049;-85
2024/03/21 10:04:49;;;;;;;;;;;;;;;10.94;31.33;94144.38;5022336;28;20050;-85
2024/03/21 10:07:24;;;;;;;7.95;2.30;;;;;;;10.91;32.81;94151.13;5006622;28;19956;-85
2024/03/21 10:09:52;;;;;;;3.88;1.45;;;;;;;10.98;33.01;94156.78;5006390;28;20018;-85
2024/03/21 10:12:18;;;;;;;5.88;1.23;;;;;;;10.93;31.89;94137.44;5005279;28;20018;-86
2024/03/21 10:14:43;;;;;;;2.70;1.70;;;;;;;11.03;32.68;94142.50;5004842;28;20367;-85
2024/03/21 10:17:10;;;;;;;6.38;1.83;;;;;;;11.03;33.08;94137.19;5006245;28;20018;-84
2024/03/21 10:19:35;;;;;;;8.05;1.55;;;;;;;11.06;32.55;94152.59;5006407;28;20018;-85
2024/03/21 10:22:01;;;;;;;13.32;1.77;;;;;;;11.05;32.25;94134.97;5006245;28;20351;-85
2024/03/21 10:24:26;;;;;;;3.58;1.45;;;;;;;11.04;32.14;94136.09;5005372;28;20420;-86
2024/03/21 10:26:52;;;;;;;2.72;1.40;;;;;;;11.09;31.81;94116.50;5005988;28;20018;-85
2024/03/21 10:29:18;;;;;;;3.55;1.40;;;;;;;11.19;31.39;94110.88;5006050;28;20022;-85
2024/03/21 10:31:45;;;;;;;3.50;1.67;;;;;;;11.34;31.36;94110.44;5006547;28;20347;-85
2024/03/21 10:34:12;;;;;;;3.03;1.20;;;;;;;11.43;30.70;94119.25;5006110;28;20014;-86
2024/03/21 10:36:38;;;;;;;2.97;1.40;;;;;;;11.52;31.21;94134.47;5005103;28;20105;-85
2024/03/21 10:39:09;;;;;;;3.10;1.20;;;;;;;11.63;30.77;94104.50;5006054;28;20030;-84
2024/03/21 10:41:36;;;;;;;5.93;1.43;;;;;;;11.64;31.03;94107.94;5005812;28;20029;-85
2024/03/21 10:44:05;;;;;;;3.42;1.08;;;;;;;11.77;29.82;94104.38;5006226;28;20022;-86
2024/03/21 10:46:36;;;;;;;2.30;1.10;;;;;;;11.78;30.09;94092.56;5006248;28;20094;-85
2024/03/21 10:49:01;;;;;;;4.03;1.27;;;;;;;11.97;29.50;94099.53;5006175;28;20018;-84
2024/03/21 10:51:27;;;;;;;1.85;0.95;;;;;;;12.05;29.55;94093.41;5021015;28;20018;-84
2024/03/21 10:54:01;;;;;;;4.82;1.10;;;;;;;12.13;29.26;94089.13;5005321;28;20038;-85
2024/03/21 10:56:32;;;;;;;2.53;1.15;;;;;;;12.19;28.33;94088.66;5005451;28;20018;-84
2024/03/21 10:58:57;;;;;;;5.95;1.30;;;;;;;12.35;29.21;94074.78;5005404;28;20377;-84
2024/03/21 11:01:37;;;;;;;6.90;1.27;;;;;;;12.38;27.92;94093.66;5005461;28;20040;-83
2024/03/21 11:04:10;;;;;;;5.75;1.25;;;;;;;12.39;28.08;94078.38;5007928;28;20022;-88
2024/03/21 11:06:38;;;;;;;6.00;1.58;;;;;;;12.46;28.55;94078.69;5030229;28;20076;-87
2024/03/21 11:09:05;;;;;;;3.30;1.05;;;;;;;12.51;26.91;94077.72;5012315;28;20037;-81
2024/03/21 11:11:31;;;;;;;4.18;0.85;;;;;;;12.42;27.02;94075.09;5005031;28;20022;-82
2024/03/21 11:14:04;;;;;;;17.05;1.33;;;;;;;12.38;26.21;94082.19;5005584;28;20118;-82
2024/03/21 11:16:30;;;;;;;2.95;1.00;;;;;;;12.20;26.42;94082.19;5006008;28;20022;-85
2024/03/21 11:18:56;;;;;;;2.75;0.98;;;;;;;12.24;27.22;94072.44;5005878;28;20024;-88
2024/03/21 11:21:22;;;;;;;5.30;1.48;;;;;;;12.35;26.67;94056.06;5006121;28;20273;-86
2024/03/21 11:23:48;;;;;;;2.88;1.00;;;;;;;12.48;26.41;94071.13;5020671;28;20023;-86
2024/03/21 11:26:16;;;;;;;2.50;0.80;;;;;;;12.54;26.07;94059.16;5005590;28;20026;-85
2024/03/21 11:28:42;;;;;;;4.40;1.30;;;;;;;12.55;27.05;94054.59;5005748;28;20021;-84
2024/03/21 11:31:21;;;;;;;7.47;1.20;;;;;;;12.60;27.20;94051.75;5005518;28;20025;-86
2024/03/21 11:33:48;;;;;;;5.72;1.52;;;;;;;12.68;27.29;94042.09;5005281;28;20037;-85
2024/03/21 11:36:15;;;;;;;8.50;1.55;;;;;;;12.78;27.41;94041.75;5004924;28;20038;-83